Time;durP1;ratioP1;P1;durP2;ratioP2;P2;SDS_P1;SDS_P2;PMS_P1;PMS_P2;Temp;Humidity;BMP_temperature;BMP_pressure;BME280_temperature;BME280_humidity;BME280_pressure;Samples;Min_cycle;Max_cycle;Signal;HPM_P1;HPM_P2
2021/09/17 00:02:05;;;;;;;;;;;;;;;17.99;100.00;100912.88;4955200;28;19934;-62
2021/09/17 00:04:33;;;;;;;;;;;;;;;17.95;100.00;100913.91;4953521;28;19981;-62
2021/09/17 00:07:01;;;;;;;;;;;;;;;17.92;100.00;100917.31;4953744;28;19933;-62
2021/09/17 00:09:29;;;;;;;;;;;;;;;17.93;100.00;100918.94;4954739;28;19937;-62
2021/09/17 00:11:56;;;;;;;;;;;;;;;17.96;100.00;100918.25;4954636;28;19926;-62
2021/09/17 00:14:24;;;;;;;;;;;;;;;17.99;100.00;100925.78;4954682;28;20282;-62
2021/09/17 00:16:52;;;;;;;;;;;;;;;17.97;100.00;100925.31;4955216;28;19937;-62
2021/09/17 00:19:21;;;;;;;;;;;;;;;17.91;100.00;100921.19;4955134;28;20302;-62
2021/09/17 00:21:49;;;;;;;;;;;;;;;17.84;100.00;100929.16;4955037;28;19936;-62
2021/09/17 00:24:17;;;;;;;;;;;;;;;17.72;100.00;100929.09;4954471;28;19926;-62
2021/09/17 00:26:45;;;;;;;;;;;;;;;17.56;100.00;100925.34;4954828;28;20373;-62
2021/09/17 00:29:13;;;;;;;;;;;;;;;17.46;100.00;100921.84;4955048;28;19926;-62
2021/09/17 00:31:41;;;;;;;;;;;;;;;17.36;100.00;100926.91;4954962;28;19933;-62
2021/09/17 00:34:09;;;;;;;;;;;;;;;17.22;100.00;100931.81;4954274;28;20386;-62
2021/09/17 00:36:38;;;;;;;;;;;;;;;17.20;100.00;100923.97;4954741;28;20274;-62
2021/09/17 00:39:06;;;;;;;;;;;;;;;17.20;100.00;100921.25;4954811;28;20056;-62
2021/09/17 00:41:34;;;;;;;;;;;;;;;17.25;100.00;100922.97;4954847;28;19931;-62
2021/09/17 00:44:02;;;;;;;;;;;;;;;17.31;100.00;100911.50;4954305;28;19937;-62
2021/09/17 00:46:30;;;;;;;;;;;;;;;17.41;100.00;100908.41;4954596;28;20021;-62
2021/09/17 00:48:58;;;;;;;;;;;;;;;17.48;100.00;100911.38;4954584;28;19926;-62
2021/09/17 00:51:26;;;;;;;;;;;;;;;17.52;100.00;100907.97;4971062;28;19926;-62
2021/09/17 00:53:55;;;;;;;;;;;;;;;17.56;100.00;100909.75;4973655;28;19930;-62
2021/09/17 00:56:23;;;;;;;;;;;;;;;17.60;100.00;100901.69;4973947;28;19933;-62
2021/09/17 00:58:51;;;;;;;;;;;;;;;17.62;100.00;100907.63;4973915;28;19969;-62
2021/09/17 01:01:19;;;;;;;;;;;;;;;17.56;100.00;100908.94;4973919;28;19953;-62
2021/09/17 01:03:46;;;;;;;;;;;;;;;17.43;100.00;100900.66;4976051;28;19930;-62
2021/09/17 01:06:14;;;;;;;;;;;;;;;17.36;100.00;100900.38;4977567;28;19927;-62
2021/09/17 01:08:42;;;;;;;;;;;;;;;17.31;100.00;100902.50;4977579;28;19938;-62
2021/09/17 01:11:11;;;;;;;;;;;;;;;17.29;100.00;100908.31;4977639;28;19930;-62
2021/09/17 01:13:39;;;;;;;;;;;;;;;17.26;100.00;100898.06;4977056;28;19933;-62
2021/09/17 01:16:08;;;;;;;;;;;;;;;17.20;100.00;100902.13;4977561;28;19949;-62
2021/09/17 01:18:36;;;;;;;;;;;;;;;17.11;100.00;100898.63;4977617;28;19926;-62
2021/09/17 01:21:05;;;;;;;;;;;;;;;17.06;100.00;100908.94;4977514;28;20385;-62
2021/09/17 01:23:33;;;;;;;;;;;;;;;16.97;100.00;100906.25;4977042;28;20033;-62
2021/09/17 01:26:01;;;;;;;;;;;;;;;16.96;100.00;100901.94;4977209;28;19932;-62
2021/09/17 01:28:30;;;;;;;;;;;;;;;16.98;100.00;100898.88;4977209;28;19930;-62
2021/09/17 01:30:57;;;;;;;;;;;;;;;17.06;100.00;100898.81;4977383;28;19930;-62
2021/09/17 01:33:27;;;;;;;;;;;;;;;17.12;100.00;100899.41;4977132;28;19926;-62
2021/09/17 01:35:58;;;;;;;;;;;;;;;17.10;100.00;100896.22;4976777;28;19926;-62
2021/09/17 01:38:28;;;;;;;;;;;;;;;17.06;100.00;100898.00;4977026;28;19957;-62
2021/09/17 01:40:56;;;;;;;;;;;;;;;17.08;100.00;100893.03;4977044;28;19927;-62
2021/09/17 01:43:24;;;;;;;;;;;;;;;17.15;100.00;100896.81;4976248;28;19933;-62
2021/09/17 01:45:52;;;;;;;;;;;;;;;17.21;100.00;100878.28;4976793;28;19926;-62
2021/09/17 01:48:20;;;;;;;;;;;;;;;17.27;100.00;100876.97;4977112;28;19926;-62
2021/09/17 01:50:48;;;;;;;;;;;;;;;17.22;100.00;100880.72;4976949;28;19926;-62
2021/09/17 01:53:16;;;;;;;;;;;;;;;17.19;100.00;100886.84;4976627;28;19930;-62
2021/09/17 01:55:45;;;;;;;;;;;;;;;17.16;100.00;100878.50;4976448;28;20350;-62
2021/09/17 01:58:13;;;;;;;;;;;;;;;17.10;100.00;100868.91;4976908;28;19926;-62
2021/09/17 02:00:41;;;;;;;;;;;;;;;17.04;100.00;100864.75;4976854;28;19926;-62
2021/09/17 02:03:08;;;;;;;;;;;;;;;16.98;100.00;100860.63;4976719;28;19930;-62
2021/09/17 02:05:36;;;;;;;;;;;;;;;16.99;100.00;100862.25;4975968;28;19933;-62
2021/09/17 02:08:04;;;;;;;;;;;;;;;16.98;100.00;100857.91;4976521;28;19936;-62
2021/09/17 02:10:32;;;;;;;;;;;;;;;16.94;100.00;100857.75;4976669;28;19932;-62
2021/09/17 02:13:02;;;;;;;;;;;;;;;16.91;100.00;100852.94;4976541;28;20404;-62
2021/09/17 02:15:29;;;;;;;;;;;;;;;16.88;100.00;100853.63;4975699;28;19953;-62
2021/09/17 02:17:57;;;;;;;;;;;;;;;16.88;100.00;100848.97;4976594;28;19926;-61
2021/09/17 02:20:25;;;;;;;;;;;;;;;16.87;100.00;100832.91;4976395;28;19933;-62
2021/09/17 02:22:53;;;;;;;;;;;;;;;16.89;100.00;100833.38;4976328;28;19926;-62
2021/09/17 02:25:21;;;;;;;;;;;;;;;16.88;100.00;100834.50;4975746;28;19926;-62
2021/09/17 02:27:49;;;;;;;;;;;17.00;99.90;;;16.83;100.00;100832.78;4976272;28;19926;-62
2021/09/17 02:30:18;;;;;;;;;;;17.00;99.90;;;16.85;100.00;100824.22;4976350;28;19926;-62
2021/09/17 02:32:46;;;;;;;;;;;16.90;99.90;;;16.82;100.00;100830.34;4976030;28;20033;-62
2021/09/17 02:35:14;;;;;;;;;;;16.90;99.90;;;16.85;100.00;100824.22;4975582;28;19930;-62
2021/09/17 02:37:42;;;;;;;;;;;16.90;99.90;;;16.80;100.00;100827.16;4975585;28;20415;-62
2021/09/17 02:40:11;;;;;;;;;;;16.90;99.90;;;16.76;100.00;100824.28;4976049;28;19926;-62
2021/09/17 02:42:39;;;;;;;;;;;16.90;99.90;;;16.72;100.00;100823.34;4976109;28;19926;-62
2021/09/17 02:45:08;;;;;;;;;;;;;;;16.68;100.00;100821.63;4975463;28;20362;-62
2021/09/17 02:47:38;;;;;;;;;;;16.80;99.90;;;16.59;100.00;100816.22;4975714;28;20270;-62
2021/09/17 02:50:07;;;;;;;;;;;16.80;99.90;;;16.55;100.00;100812.53;4975953;28;20009;-62
2021/09/17 02:52:35;;;;;;;;;;;16.70;99.90;;;16.59;100.00;100816.22;4975886;28;20159;-62
2021/09/17 02:55:03;;;;;;;;;;;16.70;99.90;;;16.59;100.00;100809.94;4975320;28;20007;-62
2021/09/17 02:57:34;;;;;;;;;;;16.70;99.90;;;16.56;100.00;100811.41;4975767;28;19926;-62
2021/09/17 03:00:02;;;;;;;;;;;16.60;99.90;;;16.53;100.00;100811.25;4975653;28;19930;-62
2021/09/17 03:02:29;;;;;;;;;;;16.60;99.90;;;16.48;100.00;100806.75;4975722;28;19926;-62
2021/09/17 03:04:59;;;;;;;;;;;16.60;99.90;;;16.48;100.00;100803.22;4975122;28;19924;-62
2021/09/17 03:07:27;;;;;;;;;;;16.60;99.90;;;16.44;100.00;100800.38;4975340;28;19934;-62
2021/09/17 03:09:54;;;;;;;;;;;16.60;99.90;;;16.43;100.00;100809.69;4975501;28;20020;-62
2021/09/17 03:12:22;;;;;;;;;;;16.50;99.90;;;16.47;100.00;100807.09;4975439;28;19934;-62
2021/09/17 03:14:50;;;;;;;;;;;16.50;99.90;;;16.51;100.00;100805.28;4974898;28;19930;-61
2021/09/17 03:17:18;;;;;;;;;;;16.40;99.90;;;16.44;100.00;100808.56;4975392;28;19926;-62
2021/09/17 03:19:46;;;;;;;;;;;16.40;99.90;;;16.31;100.00;100804.13;4975204;28;19926;-62
2021/09/17 03:22:15;;;;;;;;;;;16.40;99.90;;;16.28;100.00;100805.56;4975274;28;19926;-62
2021/09/17 03:24:43;;;;;;;;;;;16.40;99.90;;;16.25;100.00;100805.44;4974362;28;19926;-62
2021/09/17 03:27:11;;;;;;;;;;;16.30;99.90;;;16.22;100.00;100790.53;4974635;28;19926;-62
2021/09/17 03:29:39;;;;;;;;;;;16.30;99.90;;;16.23;100.00;100794.81;4974557;28;19936;-62
2021/09/17 03:32:07;;;;;;;;;;;16.30;99.90;;;16.22;100.00;100785.06;4975156;28;19930;-62
2021/09/17 03:34:35;;;;;;;;;;;16.30;99.90;;;16.25;100.00;100789.88;4974441;28;19930;-62
2021/09/17 03:37:03;;;;;;;;;;;16.30;99.90;;;16.32;100.00;100787.41;4974943;28;19933;-62
2021/09/17 03:39:32;;;;;;;;;;;16.40;99.90;;;16.27;100.00;100786.78;4974690;28;19933;-62
2021/09/17 03:42:00;;;;;;;;;;;16.30;99.90;;;16.20;100.00;100787.31;4974962;28;20399;-62
2021/09/17 03:44:30;;;;;;;;;;;;;;;16.14;100.00;100787.84;4974405;28;19926;-63
2021/09/17 03:46:58;;;;;;;;;;;16.20;99.90;;;16.14;100.00;100796.03;4974875;28;20058;-62
2021/09/17 03:49:26;;;;;;;;;;;16.30;99.90;;;16.19;100.00;100796.63;4974860;28;19940;-62
2021/09/17 03:51:54;;;;;;;;;;;16.30;99.90;;;16.25;100.00;100806.22;4974590;28;19926;-62
2021/09/17 03:54:24;;;;;;;;;;;16.30;99.90;;;16.32;100.00;100805.72;4974030;28;19938;-62
2021/09/17 03:56:54;;;;;;;;;;;16.40;99.90;;;16.38;100.00;100802.47;4974706;28;19930;-62
2021/09/17 03:59:22;;;;;;;;;;;16.40;99.90;;;16.37;100.00;100805.53;4974658;28;19936;-62
2021/09/17 04:01:50;;;;;;;;;;;16.40;99.90;;;16.33;100.00;100807.31;4974568;28;19937;-62
2021/09/17 04:04:18;;;;;;;;;;;16.40;99.90;;;16.39;100.00;100803.25;4973886;28;19965;-62
2021/09/17 04:06:46;;;;;;;;;;;16.40;99.90;;;16.44;100.00;100800.38;4974208;28;19926;-62
2021/09/17 04:09:14;;;;;;;;;;;16.50;99.90;;;16.45;100.00;100795.69;4974457;28;19974;-62
2021/09/17 04:11:42;;;;;;;;;;;16.50;99.90;;;16.44;100.00;100802.28;4974508;28;19933;-62
2021/09/17 04:14:12;;;;;;;;;;;16.50;99.90;;;16.44;100.00;100799.56;4973855;28;20498;-62
2021/09/17 04:16:39;;;;;;;;;;;16.50;99.90;;;16.44;100.00;100792.19;4974285;28;19926;-62
2021/09/17 04:19:07;;;;;;;;;;;16.50;99.90;;;16.35;100.00;100794.94;4974073;28;19968;-61
2021/09/17 04:21:35;;;;;;;;;;;16.40;99.90;;;16.26;100.00;100791.44;4974276;28;19933;-61
2021/09/17 04:24:03;;;;;;;;;;;16.30;99.90;;;16.20;100.00;100798.22;4973069;28;19933;-61
2021/09/17 04:26:31;;;;;;;;;;;16.30;99.90;;;16.20;100.00;100798.22;4974073;28;19933;-61
2021/09/17 04:28:58;;;;;;;;;;;16.30;99.90;;;16.20;100.00;100800.94;4974166;28;20025;-61
2021/09/17 04:31:28;;;;;;;;;;;16.30;99.90;;;16.26;100.00;100801.59;4974106;28;19926;-61
2021/09/17 04:33:55;;;;;;;;;;;16.30;99.90;;;16.30;100.00;100795.13;4973727;28;20305;-62
2021/09/17 04:36:23;;;;;;;;;;;16.30;99.90;;;16.33;100.00;100797.19;4973863;28;19945;-62
2021/09/17 04:38:51;;;;;;;;;;;16.30;99.90;;;16.39;100.00;100797.81;4973964;28;19933;-62
2021/09/17 04:41:19;;;;;;;;;;;16.30;99.90;;;16.34;100.00;100798.81;4974108;28;19930;-62
2021/09/17 04:43:47;;;;;;;;;;;16.30;99.90;;;16.23;100.00;100804.97;4973536;28;19930;-62
2021/09/17 04:46:15;;;;;;;;;;;;;;;16.09;100.00;100799.72;4973867;28;19933;-62
2021/09/17 04:48:44;;;;;;;;;;;;;;;16.05;100.00;100806.94;4973891;28;19926;-62
2021/09/17 04:51:12;;;;;;;;;;;;;;;15.99;100.00;100808.25;4974150;28;19965;-61
2021/09/17 04:53:40;;;;;;;;;;;;;;;15.95;100.00;100811.97;4973365;28;19933;-61
2021/09/17 04:56:08;;;;;;;;;;;;;;;15.95;100.00;100814.69;4973883;28;19926;-61
2021/09/17 04:58:36;;;;;;;;;;;;;;;15.99;100.00;100812.91;4973741;28;19926;-61
2021/09/17 05:01:03;;;;;;;;;;;;;;;16.06;100.00;100816.72;4973997;28;20313;-61
2021/09/17 05:03:31;;;;;;;;;;;;;;;16.10;100.00;100816.88;4973443;28;20013;-62
2021/09/17 05:06:01;;;;;;;;;;;;;;;16.07;100.00;100821.06;4973631;28;19926;-62
2021/09/17 05:08:28;;;;;;;;;;;16.10;99.90;;;15.99;100.00;100819.16;4973955;28;19937;-61
2021/09/17 05:10:56;;;;;;;;;;;16.00;99.90;;;15.90;100.00;100825.78;4973848;28;19934;-61
2021/09/17 05:13:24;;;;;;;;;;;15.90;99.90;;;15.82;100.00;100820.00;4973633;28;19930;-62
2021/09/17 05:15:52;;;;;;;;;;;15.90;99.90;;;15.87;100.00;100818.25;4972721;28;19926;-62
2021/09/17 05:18:20;;;;;;;;;;;15.90;99.90;;;15.96;100.00;100821.75;4973793;28;19929;-62
2021/09/17 05:20:48;;;;;;;;;;;16.00;99.90;;;16.05;100.00;100828.75;4973581;28;19930;-62
2021/09/17 05:23:17;;;;;;;;;;;16.00;99.90;;;16.12;100.00;100823.59;4973671;28;19933;-62
2021/09/17 05:25:45;;;;;;;;;;;16.10;99.90;;;16.19;100.00;100823.91;4973008;28;20370;-62
2021/09/17 05:28:13;;;;;;;;;;;16.20;99.90;;;16.19;100.00;100829.38;4973493;28;19949;-62
2021/09/17 05:30:41;;;;;;;;;;;16.20;99.90;;;16.19;100.00;100821.19;4973577;28;19934;-62
2021/09/17 05:33:08;;;;;;;;;;;16.20;99.90;;;16.26;100.00;100829.63;4973579;28;19953;-62
2021/09/17 05:35:36;;;;;;;;;;;16.30;99.90;;;16.25;100.00;100835.44;4973044;28;19933;-62
2021/09/17 05:38:04;;;;;;;;;;;16.30;99.90;;;16.31;100.00;100834.94;4973577;28;19926;-62
2021/09/17 05:40:33;;;;;;;;;;;16.30;99.90;;;16.40;100.00;100834.91;4973437;28;20293;-62
2021/09/17 05:43:01;;;;;;;;;;;16.40;99.90;;;16.42;100.00;100838.09;4973574;28;19934;-62
2021/09/17 05:45:29;;;;;;;;;;;16.40;99.90;;;16.41;100.00;100834.56;4973107;28;20325;-62
2021/09/17 05:47:57;;;;;;;;;;;16.40;99.90;;;16.40;100.00;100840.34;4973648;28;19929;-62
2021/09/17 05:50:25;;;;;;;;;;;16.50;99.90;;;16.41;100.00;100836.50;4976815;28;19933;-62
2021/09/17 05:52:53;;;;;;;;;;;16.50;99.90;;;16.39;100.00;100842.28;4976725;28;19930;-61
2021/09/17 05:55:26;;;;;;;;;;;16.50;99.90;;;16.49;100.00;100835.66;4976294;28;19926;-62
2021/09/17 05:57:56;;;;;;;;;;;16.50;99.90;;;16.49;100.00;100841.13;4976924;28;19938;-63
2021/09/17 06:00:24;;;;;;;;;;;16.50;99.90;;;16.46;100.00;100835.50;4976759;28;19930;-63
2021/09/17 06:02:52;;;;;;;;;;;16.50;99.90;;;16.40;100.00;100841.16;4976741;28;20290;-63
2021/09/17 06:05:20;;;;;;;;;;;16.50;99.90;;;16.42;100.00;100838.91;4976002;28;19926;-63
2021/09/17 06:07:48;;;;;;;;;;;16.50;99.90;;;16.48;100.00;100841.44;4976602;28;19926;-62
2021/09/17 06:10:16;;;;;;;;;;;16.50;99.90;;;16.51;100.00;100844.31;4975893;28;19926;-63
2021/09/17 06:12:45;;;;;;;;;;;16.50;99.90;;;16.55;100.00;100849.94;4976460;28;20020;-62
2021/09/17 06:15:17;;;;;;;;;;;16.50;99.90;;;16.60;100.00;100847.03;4975869;28;19926;-61
2021/09/17 06:17:45;;;;;;;;;;;16.50;99.90;;;16.63;100.00;100841.69;4976363;28;19926;-62
2021/09/17 06:20:13;;;;;;;;;;;16.60;99.90;;;16.68;100.00;100852.47;4976471;28;19949;-62
2021/09/17 06:22:44;;;;;;;;;;;16.60;99.90;;;16.69;100.00;100856.78;4976294;28;20389;-62
2021/09/17 06:25:14;;;;;;;;;;;16.60;99.90;;;16.70;100.00;100860.31;4975684;28;19992;-63
2021/09/17 06:27:43;;;;;;;;;;;16.70;99.90;;;16.71;100.00;100865.44;4976288;28;20404;-62
2021/09/17 06:30:11;;;;;;;;;;;16.70;99.90;;;16.70;100.00;100868.50;4976242;28;19934;-62
2021/09/17 06:32:41;;;;;;;;;;;16.70;99.90;;;16.70;100.00;100869.31;4976159;28;19927;-62
2021/09/17 06:35:10;;;;;;;;;;;16.70;99.90;;;16.72;100.00;100869.75;4975550;28;19926;-62
2021/09/17 06:37:45;;;;;;;;;;;16.80;99.90;;;16.92;100.00;100879.16;4976149;28;19937;-62
2021/09/17 06:40:14;;;;;;;;;;;16.80;99.90;;;17.34;100.00;100879.97;4958632;28;20029;-62
2021/09/17 06:42:42;;;;;;;;;;;16.90;99.90;;;17.91;100.00;100869.19;4955295;28;19938;-61
2021/09/17 06:45:10;;;;;;;;;;;17.00;99.90;;;18.57;100.00;100869.94;4954681;28;20425;-62
2021/09/17 06:47:46;;;;;;;;;;;17.30;99.90;;;19.43;100.00;100855.78;4955159;28;19927;-62
2021/09/17 06:50:15;;;;;;;;;;;17.70;99.90;;;20.23;100.00;100860.28;4954858;28;19926;-62
2021/09/17 06:52:47;;;;;;;;;;;18.20;99.90;;;21.06;100.00;100862.72;4955523;28;19933;-62
2021/09/17 06:55:16;;;;;;;;;;;18.40;99.90;;;22.24;100.00;100848.22;4955883;28;19926;-62
2021/09/17 06:57:45;;;;;;;;;;;18.90;99.90;;;23.49;100.00;100846.19;4956132;28;19927;-62
2021/09/17 07:00:15;;;;;;;;;;;19.90;99.90;;;24.77;100.00;100841.50;4955456;28;19933;-62
2021/09/17 07:02:43;;;;;;;;;;;;;;;25.88;100.00;100849.16;4964871;28;20450;-62
2021/09/17 07:05:13;;;;;;;;;;;21.40;99.90;;;27.23;100.00;100841.59;4975114;28;19926;-62
2021/09/17 07:07:41;;;;;;;;;;;22.10;99.90;;;28.73;100.00;100841.06;4975476;28;20322;-62
2021/09/17 07:10:10;;;;;;;;;;;24.00;99.90;;;29.74;100.00;100851.44;4975343;28;19933;-63
2021/09/17 07:12:39;;;;;;;;;;;24.30;99.90;;;30.80;100.00;100839.41;4975632;28;19926;-62
2021/09/17 07:15:08;;;;;;;;;;;26.00;99.90;;;31.86;100.00;100836.44;4974764;28;19949;-63
2021/09/17 07:17:36;;;;;;;;;;;26.90;99.90;;;32.44;100.00;100835.47;4975430;28;19933;-63
2021/09/17 07:20:05;;;;;;;;;;;27.80;99.90;;;32.67;100.00;100845.69;4975230;28;19926;-63
2021/09/17 07:22:34;;;;;;;;;;;28.20;99.90;;;32.74;100.00;100850.34;4975225;28;19932;-63
2021/09/17 07:25:02;;;;;;;;;;;28.60;99.90;;;32.60;100.00;100850.69;4974656;28;19930;-63
2021/09/17 07:27:30;;;;;;;;;;;;;;;31.54;100.00;100853.94;4974984;28;19926;-63
2021/09/17 07:29:58;;;;;;;;;;;29.30;99.90;;;29.98;100.00;100864.25;4975139;28;19926;-63
2021/09/17 07:32:26;;;;;;;;;;;29.10;99.90;;;28.60;100.00;100865.03;4975083;28;19933;-63
2021/09/17 07:34:55;;;;;;;;;;;29.00;99.90;;;27.59;100.00;100873.63;4974351;28;19922;-63
2021/09/17 07:37:23;;;;;;;;;;;28.40;99.90;;;26.79;100.00;100876.16;4974954;28;19926;-62
2021/09/17 07:39:52;;;;;;;;;;;27.60;99.90;;;26.10;100.00;100875.72;4974888;28;19926;-62
2021/09/17 07:42:20;;;;;;;;;;;26.90;99.90;;;25.26;100.00;100881.75;4974996;28;19927;-63
2021/09/17 07:44:48;;;;;;;;;;;26.20;99.90;;;23.88;100.00;100891.59;4974559;28;19929;-63
2021/09/17 07:47:16;;;;;;;;;;;25.30;99.90;;;23.19;100.00;100893.06;4974852;28;19942;-62
2021/09/17 07:49:44;;;;;;;;;;;24.50;99.90;;;23.20;100.00;100878.09;4974485;28;19926;-62
2021/09/17 07:52:12;;;;;;;;;;;24.00;99.90;;;23.38;100.00;100874.41;4974793;28;19932;-62
2021/09/17 07:54:39;;;;;;;;;;;23.80;99.90;;;23.44;100.00;100874.13;4973550;28;20393;-62
2021/09/17 07:57:09;;;;;;;;;;;23.50;99.90;;;23.62;100.00;100870.38;4974620;28;19932;-62
2021/09/17 07:59:37;;;;;;;;;;;23.50;99.90;;;23.85;100.00;100882.09;4974581;28;19929;-62
2021/09/17 08:02:05;;;;;;;;;;;23.50;99.90;;;24.01;100.00;100881.09;4974461;28;19926;-62
2021/09/17 08:04:33;;;;;;;;;;;23.50;99.90;;;24.18;100.00;100883.25;4973893;28;19926;-62
2021/09/17 08:07:01;;;;;;;;;;;23.60;99.90;;;24.24;100.00;100876.19;4974486;28;19926;-62
2021/09/17 08:09:28;;;;;;;;;;;23.70;99.90;;;24.36;100.00;100889.75;4974411;28;19933;-62
2021/09/17 08:11:56;;;;;;;;;;;23.80;99.90;;;24.26;100.00;100884.91;4974113;28;19926;-63
2021/09/17 08:14:25;;;;;;;;;;;23.90;99.90;;;24.18;100.00;100888.78;4973713;28;19927;-63
2021/09/17 08:16:53;;;;;;;;;;;23.90;99.90;;;24.13;100.00;100892.69;4974223;28;19926;-63
2021/09/17 08:19:21;;;;;;;;;;;23.80;99.90;;;24.26;100.00;100888.47;4974490;28;19926;-63
2021/09/17 08:21:49;;;;;;;;;;;23.90;99.90;;;24.45;100.00;100881.91;4974267;28;19933;-63
2021/09/17 08:24:17;;;;;;;;;;;23.90;99.90;;;24.50;100.00;100881.56;4973915;28;19926;-63
2021/09/17 08:26:47;;;;;;;;;;;;;;;24.52;100.00;100882.00;4974027;28;20481;-63
2021/09/17 08:29:16;;;;;;;;;;;24.00;99.90;;;24.41;100.00;100881.09;4974076;28;19930;-62
2021/09/17 08:31:45;;;;;;;;;;;23.90;99.90;;;24.27;100.00;100879.00;4974296;28;19926;-62
2021/09/17 08:34:13;;;;;;;;;;;23.80;99.90;;;24.17;100.00;100876.13;4973804;28;19930;-63
2021/09/17 08:36:41;;;;;;;;;;;23.80;99.90;;;23.89;100.00;100882.91;4974150;28;20362;-63
2021/09/17 08:39:09;;;;;;;;;;;23.70;99.90;;;23.92;100.00;100876.63;4974293;28;19926;-63
2021/09/17 08:41:39;;;;;;;;;;;23.70;99.90;;;23.95;100.00;100875.09;4974163;28;19930;-62
2021/09/17 08:44:07;;;;;;;;;;;23.70;99.90;;;23.89;100.00;100887.66;4973490;28;20400;-62
2021/09/17 08:46:35;;;;;;;;;;;23.60;99.90;;;24.23;100.00;100889.22;4974034;28;20293;-63
2021/09/17 08:49:05;;;;;;;;;;;23.60;99.90;;;24.28;100.00;100886.13;4964569;28;19930;-62
2021/09/17 08:51:33;;;;;;;;;;;;;;;24.35;100.00;100890.91;4954862;28;19927;-62
2021/09/17 08:54:04;;;;;;;;;;;;;;;24.29;100.00;100893.22;4954115;28;19927;-62
2021/09/17 08:56:32;;;;;;;;;;;;;;;24.38;100.00;100890.13;4954665;28;19927;-63
2021/09/17 08:59:00;;;;;;;;;;;24.00;99.90;;;24.03;100.00;100887.00;4954874;28;19926;-63
2021/09/17 09:01:29;;;;;;;;;;;23.90;99.90;;;23.91;100.00;100886.13;4954858;28;19933;-63
2021/09/17 09:03:59;;;;;;;;;;;23.80;99.90;;;23.81;100.00;100884.03;4954267;28;20390;-63
2021/09/17 09:06:34;;;;;;;;;;;23.70;99.90;;;23.89;100.00;100876.63;4954353;28;20374;-62
2021/09/17 09:09:02;;;;;;;;;;;23.70;99.90;;;24.12;100.00;100877.28;4954626;28;20310;-63
2021/09/17 09:11:31;;;;;;;;;;;23.70;99.90;;;24.30;100.00;100878.25;4954537;28;19931;-63
2021/09/17 09:14:05;;;;;;;;;;;23.80;99.90;;;24.39;100.00;100873.19;4954094;28;20370;-63
2021/09/17 09:16:33;;;;;;;;;;;24.00;99.90;;;24.45;100.00;100874.44;4954432;28;19930;-63
2021/09/17 09:19:23;;;;;;;;;;;24.00;99.90;;;24.59;100.00;100876.53;4953917;28;20623;-63
2021/09/17 09:21:53;;;;;;;;;;;24.10;99.90;;;24.66;100.00;100870.22;4954638;28;19933;-63
2021/09/17 09:24:22;;;;;;;;;;;24.10;99.90;;;24.68;100.00;100870.66;4956015;28;19927;-63
2021/09/17 09:27:09;;;;;;;;;;;24.20;99.90;;;24.68;100.00;100877.00;4958135;28;19937;-63
2021/09/17 09:29:38;;;;;;;;;;;24.20;99.90;;;24.72;100.00;100875.03;4957870;28;20374;-63
2021/09/17 09:32:06;;;;;;;;;;;24.30;99.90;;;24.88;100.00;100870.03;4958058;28;19933;-63
2021/09/17 09:34:52;;;;;;;;;;;24.40;99.90;;;24.79;100.00;100863.22;4957530;28;19927;-63
2021/09/17 09:37:23;;;;;;;;;;;24.40;99.90;;;24.79;100.00;100866.00;4958291;28;19985;-63
2021/09/17 09:39:52;;;;;;;;;;;24.40;99.90;;;24.90;100.00;100866.88;4957898;28;19930;-63
2021/09/17 09:42:21;;;;;;;;;;;24.40;99.90;;;24.98;100.00;100865.78;4967337;28;19934;-63
2021/09/17 09:45:08;;;;;;;;;;;24.50;99.90;;;24.94;100.00;100865.75;4976514;28;20021;-63
2021/09/17 09:47:37;;;;;;;;;;;24.60;99.90;;;25.05;100.00;100873.31;4976938;28;20377;-62
2021/09/17 09:50:07;;;;;;;;;;;24.70;99.90;;;25.19;100.00;100873.38;4976883;28;19992;-62
2021/09/17 09:52:36;;;;;;;;;;;24.80;99.90;;;25.16;100.00;100880.50;4976959;28;20420;-62
2021/09/17 09:55:05;;;;;;;;;;;24.70;99.90;;;25.08;100.00;100867.78;4976427;28;19926;-62
2021/09/17 09:57:34;;;;;;;;;;;24.60;99.90;;;25.13;100.00;100875.75;4976916;28;19926;-62
2021/09/17 10:00:04;;;;;;;;;;;24.70;99.90;;;25.16;100.00;100874.16;4976930;28;19929;-62
2021/09/17 10:02:32;;;;;;;;;;;24.80;99.90;;;25.07;100.00;100868.97;4976690;28;19996;-62
2021/09/17 10:05:00;;;;;;;;;;;24.90;99.90;;;25.20;100.00;100872.22;4976120;28;19926;-62
2021/09/17 10:07:29;;;;;;;;;;;24.90;99.90;;;25.32;100.00;100869.88;4976649;28;20297;-62
2021/09/17 10:09:59;;;;;;;;;;;25.00;99.90;;;25.32;100.00;100869.13;4976620;28;19926;-62
2021/09/17 10:12:28;;;;;;;;;;;25.10;99.90;;;25.21;100.00;100882.09;4976647;28;19933;-62
2021/09/17 10:14:57;;;;;;;;;;;25.10;99.90;;;25.06;100.00;100878.44;4975940;28;19923;-63
2021/09/17 10:17:29;;;;;;;;;;;25.10;99.90;;;24.93;100.00;100874.41;4976425;28;19926;-62
2021/09/17 10:19:58;;;;;;;;;;;25.10;99.90;;;24.98;100.00;100869.34;4976641;28;19933;-62
2021/09/17 10:22:31;;;;;;;;;;;25.10;99.90;;;24.91;100.00;100877.56;4976590;28;20370;-63
2021/09/17 10:25:19;;;;;;;;;;;25.10;99.90;;;24.85;100.00;100868.06;4975847;28;19926;-63
2021/09/17 10:27:48;;;;;;;;;;;25.00;99.90;;;24.81;100.00;100866.44;4976263;28;19926;-62
2021/09/17 10:30:18;;;;;;;;;;;25.00;99.90;;;24.68;100.00;100865.13;4976214;28;20297;-65
2021/09/17 10:32:49;;;;;;;;;;;24.90;99.90;;;24.62;100.00;100864.69;4976127;28;20341;-62
2021/09/17 10:35:22;;;;;;;;;;;24.80;99.90;;;24.67;100.00;100869.88;4975053;28;20070;-62
2021/09/17 10:38:10;;;;;;;;;;;24.80;99.90;;;24.59;100.00;100876.53;4976099;28;19930;-62
2021/09/17 10:40:45;;;;;;;;;;;24.70;99.90;;;24.54;100.00;100871.34;4976104;28;19969;-62
2021/09/17 10:43:35;;;;;;;;;;;24.70;99.90;;;24.51;100.00;100868.53;4975992;28;19926;-62
2021/09/17 10:46:04;;;;;;;;;;;24.60;99.90;;;24.54;100.00;100867.78;4975875;28;19926;-62
2021/09/17 10:48:55;;;;;;;;;;;24.60;99.90;;;24.55;100.00;100859.09;4975841;28;19926;-63
2021/09/17 10:51:35;;;;;;;;;;;24.60;99.90;;;24.51;100.00;100860.25;4975824;28;20342;-62
2021/09/17 10:54:09;;;;;;;;;;;24.60;99.90;;;24.40;100.00;100860.16;4975487;28;19926;-62
2021/09/17 10:57:02;;;;;;;;;;;24.60;99.90;;;24.32;100.00;100866.78;4975810;28;19926;-62
2021/09/17 10:59:41;;;;;;;;;;;24.50;99.90;;;24.22;100.00;100851.72;4972586;28;19984;-62
2021/09/17 11:02:09;;;;;;;;;;;24.40;99.90;;;24.18;100.00;100855.63;4975717;28;19926;-62
2021/09/17 11:04:38;;;;;;;;;;;24.30;99.90;;;24.24;100.00;100851.34;4975081;28;19926;-62
2021/09/17 11:07:32;;;;;;;;;;;24.40;99.90;;;24.30;100.00;100855.34;4975748;28;19926;-62
2021/09/17 11:10:00;;;;;;;;;;;24.40;99.90;;;24.27;100.00;100856.91;4975590;28;20385;-62
2021/09/17 11:12:30;;;;;;;;;;;24.40;99.90;;;24.35;100.00;100852.22;4975574;28;19933;-62
2021/09/17 11:14:59;;;;;;;;;;;;;;;24.42;100.00;100860.56;4974912;28;19928;-63
2021/09/17 11:17:41;;;;;;;;;;;24.50;99.90;;;24.39;100.00;100864.91;4975407;28;19933;-63
2021/09/17 11:20:11;;;;;;;;;;;24.50;99.90;;;24.35;100.00;100861.31;4975488;28;20021;-62
2021/09/17 11:22:57;;;;;;;;;;;24.50;99.90;;;24.38;100.00;100862.50;4975357;28;19926;-63
2021/09/17 11:25:36;;;;;;;;;;;;;;;24.46;100.00;100866.94;4974575;28;19926;-62
2021/09/17 11:28:07;;;;;;;;;;;24.50;99.90;;;24.45;100.00;100859.81;4975156;28;19933;-62
2021/09/17 11:30:36;;;;;;;;;;;24.50;99.90;;;24.42;100.00;100857.81;4974750;28;19934;-63
2021/09/17 11:33:17;;;;;;;;;;;24.50;99.90;;;24.41;100.00;100856.22;4975077;28;20393;-62
2021/09/17 11:35:45;;;;;;;;;;;24.50;99.90;;;24.27;100.00;100853.34;4974744;28;19926;-62